createdAt,value
2023-02-02T00:01:48.059Z,7.70
2023-02-02T00:04:19.275Z,6.90
2023-02-02T00:06:48.980Z,4.03
2023-02-02T00:09:19.763Z,6.60
2023-02-02T00:11:50.317Z,6.30
2023-02-02T00:14:19.033Z,7.32
2023-02-02T00:16:48.697Z,5.30
2023-02-02T00:19:18.977Z,6.93
2023-02-02T00:21:48.790Z,7.75
2023-02-02T00:24:19.213Z,6.43
2023-02-02T00:26:49.602Z,4.50
2023-02-02T00:29:20.176Z,7.43
2023-02-02T00:31:49.630Z,3.47
2023-02-02T00:34:18.469Z,5.72
2023-02-02T00:36:50.894Z,3.78
2023-02-02T00:39:21.109Z,4.97
2023-02-02T00:41:50.692Z,7.57
2023-02-02T00:44:37.563Z,3.90
2023-02-02T00:47:06.331Z,6.03
2023-02-02T00:49:34.640Z,5.10
2023-02-02T00:52:04.727Z,9.25
2023-02-02T00:54:33.072Z,7.07
2023-02-02T00:57:01.246Z,6.88
2023-02-02T00:59:32.693Z,11.73
2023-02-02T01:02:02.160Z,4.97
2023-02-02T01:04:30.483Z,9.05
2023-02-02T01:06:58.891Z,5.60
2023-02-02T01:09:28.566Z,6.87
2023-02-02T01:11:56.987Z,5.75
2023-02-02T01:14:27.058Z,7.78
2023-02-02T01:16:57.212Z,5.13
2023-02-02T01:19:25.637Z,7.97
2023-02-02T01:21:54.302Z,8.87
2023-02-02T01:24:22.537Z,8.27
2023-02-02T01:26:52.241Z,19.43
2023-02-02T01:29:20.659Z,22.45
2023-02-02T01:31:49.556Z,12.43
2023-02-02T01:34:17.904Z,13.35
2023-02-02T01:36:46.123Z,11.07
2023-02-02T01:39:15.037Z,18.43
2023-02-02T01:41:43.379Z,8.80
2023-02-02T01:44:49.095Z,9.10
2023-02-02T01:47:19.827Z,7.10
2023-02-02T01:49:48.500Z,14.20
2023-02-02T01:52:19.610Z,5.90
2023-02-02T01:54:51.379Z,7.25
2023-02-02T01:57:25.319Z,9.23
2023-02-02T01:59:55.854Z,13.10
2023-02-02T02:02:26.765Z,13.52
2023-02-02T02:04:56.220Z,9.43
2023-02-02T02:07:25.482Z,8.85
2023-02-02T02:09:54.174Z,12.37
2023-02-02T02:12:22.571Z,9.82
2023-02-02T02:15:10.318Z,11.13
2023-02-02T02:17:59.169Z,9.18
2023-02-02T02:21:17.166Z,12.93
2023-02-02T02:24:38.966Z,7.78
2023-02-02T02:27:36.562Z,9.93
2023-02-02T02:30:34.057Z,10.68
2023-02-02T02:33:06.763Z,10.63
2023-02-02T02:35:41.426Z,10.13
2023-02-02T02:38:17.807Z,7.65
2023-02-02T02:40:51.165Z,10.95
2023-02-02T02:43:23.329Z,10.40
2023-02-02T02:45:54.680Z,8.75
2023-02-02T02:48:25.259Z,15.68
2023-02-02T02:50:53.700Z,13.50
2023-02-02T02:53:23.577Z,11.73
2023-02-02T02:56:00.694Z,7.90
2023-02-02T02:58:37.291Z,9.90
2023-02-02T03:01:12.227Z,11.25
2023-02-02T03:03:52.994Z,8.93
2023-02-02T03:06:25.285Z,11.07
2023-02-02T03:08:59.776Z,11.40
2023-02-02T03:11:28.145Z,12.18
2023-02-02T03:13:57.171Z,11.45
2023-02-02T03:16:25.324Z,8.70
2023-02-02T03:18:56.074Z,7.68
2023-02-02T03:21:24.537Z,10.50
2023-02-02T03:23:52.847Z,10.10
2023-02-02T03:26:21.771Z,9.40
2023-02-02T03:28:50.349Z,12.43
2023-02-02T03:31:20.223Z,9.15
2023-02-02T03:33:48.563Z,9.95
2023-02-02T03:36:18.441Z,10.80
2023-02-02T03:38:46.669Z,11.55
2023-02-02T03:41:15.294Z,11.38
2023-02-02T03:43:43.501Z,9.00
2023-02-02T03:46:12.106Z,10.65
2023-02-02T03:48:40.980Z,10.90
2023-02-02T03:51:11.578Z,12.57
2023-02-02T03:53:44.349Z,8.60
2023-02-02T03:56:12.868Z,8.18
2023-02-02T03:58:41.119Z,7.20
2023-02-02T04:01:13.310Z,10.38
2023-02-02T04:03:41.510Z,11.20
2023-02-02T04:06:10.061Z,7.72
2023-02-02T04:08:39.431Z,8.40
2023-02-02T04:11:12.521Z,12.33
2023-02-02T04:13:43.332Z,7.57
2023-02-02T04:16:12.716Z,11.27
2023-02-02T04:18:41.210Z,11.60
2023-02-02T04:21:10.148Z,10.57
2023-02-02T04:23:39.079Z,9.95
2023-02-02T04:26:07.709Z,7.93
2023-02-02T04:28:37.760Z,7.75
2023-02-02T04:31:06.420Z,6.25
2023-02-02T04:33:36.383Z,5.23
2023-02-02T04:36:05.222Z,7.13
2023-02-02T04:38:33.439Z,4.30
2023-02-02T04:41:08.067Z,8.10
2023-02-02T04:43:38.878Z,3.97
2023-02-02T04:46:07.393Z,9.65
2023-02-02T04:48:35.713Z,7.22
2023-02-02T04:51:05.322Z,5.28
2023-02-02T04:53:33.867Z,7.75
2023-02-02T04:56:07.981Z,5.65
2023-02-02T04:58:37.546Z,6.75
2023-02-02T05:01:10.408Z,5.80
2023-02-02T05:03:38.729Z,6.60
2023-02-02T05:06:07.358Z,5.30
2023-02-02T05:08:35.940Z,4.40
2023-02-02T05:11:08.059Z,4.43
2023-02-02T05:13:37.813Z,5.70
2023-02-02T05:16:06.886Z,6.80
2023-02-02T05:18:35.121Z,5.75
2023-02-02T05:21:04.229Z,8.68
2023-02-02T05:23:32.688Z,11.30
2023-02-02T05:26:01.005Z,7.47
2023-02-02T05:28:29.449Z,13.27
2023-02-02T05:30:59.078Z,9.95
2023-02-02T05:33:27.370Z,8.75
2023-02-02T05:35:55.642Z,10.30
2023-02-02T05:38:23.835Z,14.13
2023-02-02T05:40:52.031Z,11.82
2023-02-02T05:43:21.582Z,14.63
2023-02-02T05:45:49.921Z,8.87
2023-02-02T05:48:19.537Z,11.63
2023-02-02T05:50:56.756Z,16.42
2023-02-02T05:53:25.615Z,16.42
2023-02-02T05:55:53.943Z,16.98
2023-02-02T05:58:22.109Z,17.70
2023-02-02T06:00:50.628Z,19.55
2023-02-02T06:03:20.296Z,15.77
2023-02-02T06:05:49.071Z,16.65
2023-02-02T06:08:17.346Z,17.30
2023-02-02T06:10:45.595Z,18.52
2023-02-02T06:13:13.910Z,11.88
2023-02-02T06:15:43.344Z,13.23
2023-02-02T06:18:11.802Z,19.73
2023-02-02T06:20:41.504Z,17.00
2023-02-02T06:23:09.782Z,19.27
2023-02-02T06:25:37.931Z,15.35
2023-02-02T06:28:06.232Z,12.65
2023-02-02T06:30:34.882Z,15.07
2023-02-02T06:33:03.146Z,20.23
2023-02-02T06:35:31.368Z,15.05
2023-02-02T06:38:00.972Z,19.38
2023-02-02T06:40:29.720Z,13.70
2023-02-02T06:42:58.565Z,16.00
2023-02-02T06:45:27.388Z,16.20
2023-02-02T06:47:56.031Z,15.00
2023-02-02T06:50:24.182Z,13.70
2023-02-02T06:52:53.453Z,16.40
2023-02-02T06:55:23.318Z,12.50
2023-02-02T06:57:57.873Z,19.07
2023-02-02T07:00:26.517Z,18.08
2023-02-02T07:02:54.829Z,16.75
2023-02-02T07:05:24.224Z,18.48
2023-02-02T07:07:52.814Z,11.43
2023-02-02T07:11:11.512Z,13.57
2023-02-02T07:13:11.104Z,13.88
2023-02-02T07:15:40.623Z,20.57
2023-02-02T07:18:09.230Z,16.70
2023-02-02T07:20:37.399Z,13.57
2023-02-02T07:23:05.585Z,14.20
2023-02-02T07:25:35.332Z,14.73
2023-02-02T07:28:05.502Z,18.30
2023-02-02T07:30:34.047Z,21.75
2023-02-02T07:33:02.276Z,22.60
2023-02-02T07:35:30.591Z,14.60
2023-02-02T07:37:58.829Z,15.82
2023-02-02T07:40:27.082Z,16.58
2023-02-02T07:43:00.575Z,22.38
2023-02-02T07:45:30.093Z,16.38
2023-02-02T07:47:58.623Z,15.63
2023-02-02T07:50:28.244Z,18.17
2023-02-02T07:52:56.790Z,15.63
2023-02-02T07:55:26.965Z,12.15
2023-02-02T07:57:59.046Z,22.70
2023-02-02T08:00:27.783Z,21.95
2023-02-02T08:02:56.272Z,14.77
2023-02-02T08:05:25.026Z,12.48
2023-02-02T08:07:53.430Z,11.73
2023-02-02T08:10:21.784Z,23.50
2023-02-02T08:12:50.036Z,18.88
2023-02-02T08:15:19.691Z,12.73
2023-02-02T08:17:50.147Z,10.27
2023-02-02T08:20:18.543Z,10.98
2023-02-02T08:22:46.724Z,13.03
2023-02-02T08:25:15.043Z,12.35
2023-02-02T08:27:43.345Z,15.93
2023-02-02T08:30:13.680Z,14.03
2023-02-02T08:32:43.292Z,17.17
2023-02-02T08:35:11.650Z,15.57
2023-02-02T08:37:39.974Z,11.65
2023-02-02T08:40:09.830Z,13.15
2023-02-02T08:42:38.660Z,9.10
2023-02-02T08:46:02.744Z,8.00
2023-02-02T08:48:10.837Z,14.93
2023-02-02T08:50:39.884Z,14.88
2023-02-02T08:53:08.362Z,11.60
2023-02-02T08:55:36.557Z,12.95
2023-02-02T08:58:05.304Z,14.10
2023-02-02T09:00:33.551Z,11.90
2023-02-02T09:03:03.180Z,11.02
2023-02-02T09:05:31.479Z,12.63
2023-02-02T09:07:59.719Z,13.43
2023-02-02T09:10:28.476Z,11.35
2023-02-02T09:12:56.696Z,11.65
2023-02-02T09:15:25.229Z,10.50
2023-02-02T09:17:54.162Z,7.90
2023-02-02T09:20:24.151Z,9.45
2023-02-02T09:22:52.369Z,6.63
2023-02-02T09:25:20.669Z,14.77
2023-02-02T09:27:48.953Z,9.07
2023-02-02T09:30:17.468Z,12.10
2023-02-02T09:32:46.019Z,11.32
2023-02-02T09:35:14.777Z,10.98
2023-02-02T09:37:45.404Z,8.75
2023-02-02T09:40:19.306Z,6.53
2023-02-02T09:42:59.446Z,11.73
2023-02-02T09:45:33.538Z,8.18
2023-02-02T09:48:10.960Z,13.43
2023-02-02T09:50:46.985Z,10.13
2023-02-02T09:53:53.167Z,8.20
2023-02-02T09:56:27.681Z,6.95
2023-02-02T09:59:06.947Z,7.97
2023-02-02T10:01:46.485Z,8.07
2023-02-02T10:04:19.535Z,8.65
2023-02-02T10:06:50.110Z,6.25
2023-02-02T10:09:28.888Z,7.13
2023-02-02T10:12:04.534Z,8.05
2023-02-02T10:14:36.501Z,7.25
2023-02-02T10:17:20.086Z,5.35
2023-02-02T10:19:51.602Z,3.90
2023-02-02T10:22:24.647Z,8.43
2023-02-02T10:24:54.567Z,7.20
2023-02-02T10:27:31.771Z,5.15
2023-02-02T10:30:01.919Z,5.00
2023-02-02T10:32:36.453Z,6.73
2023-02-02T10:35:18.364Z,10.30
2023-02-02T10:37:54.340Z,5.85
2023-02-02T10:40:38.997Z,8.65
2023-02-02T10:43:47.631Z,5.40
2023-02-02T10:46:21.460Z,6.70
2023-02-02T10:48:52.882Z,9.65
2023-02-02T10:51:25.300Z,9.90
2023-02-02T10:53:54.956Z,10.47
2023-02-02T10:56:30.371Z,8.80
2023-02-02T10:59:04.123Z,7.60
2023-02-02T11:01:32.492Z,14.93
2023-02-02T11:04:18.065Z,9.93
2023-02-02T11:06:52.457Z,12.23
2023-02-02T11:09:24.348Z,11.57
2023-02-02T11:11:59.118Z,12.80
2023-02-02T11:14:44.533Z,13.50
2023-02-02T11:17:21.396Z,12.63
2023-02-02T11:19:50.930Z,10.00
2023-02-02T11:22:29.223Z,13.73
2023-02-02T11:24:59.098Z,11.30
2023-02-02T11:27:32.624Z,15.40
2023-02-02T11:30:09.824Z,15.40
2023-02-02T11:32:38.371Z,11.98
2023-02-02T11:35:20.933Z,18.67
2023-02-02T11:37:58.122Z,14.07
2023-02-02T11:40:32.714Z,17.55
2023-02-02T11:43:05.942Z,13.70
2023-02-02T11:45:39.184Z,10.50
2023-02-02T11:48:18.329Z,12.32
2023-02-02T11:50:48.973Z,13.68
2023-02-02T11:53:25.947Z,11.90
2023-02-02T11:55:55.303Z,14.60
2023-02-02T11:58:28.516Z,13.57
2023-02-02T12:00:59.824Z,13.13
2023-02-02T12:03:31.845Z,15.15
2023-02-02T12:06:02.114Z,11.55
2023-02-02T12:08:31.323Z,18.25
2023-02-02T12:11:03.081Z,10.27
2023-02-02T12:13:44.120Z,9.77
2023-02-02T12:16:26.169Z,11.13
2023-02-02T12:19:23.743Z,14.40
2023-02-02T12:21:57.608Z,10.05
2023-02-02T12:24:32.513Z,10.23
2023-02-02T12:27:17.314Z,12.73
2023-02-02T12:30:12.147Z,10.48
2023-02-02T12:32:58.867Z,10.18
2023-02-02T12:35:41.666Z,8.57
2023-02-02T12:38:22.263Z,11.00
2023-02-02T12:41:10.824Z,12.70
2023-02-02T12:43:42.073Z,12.93
2023-02-02T12:46:38.386Z,11.80
2023-02-02T12:49:38.392Z,17.98
2023-02-02T12:52:18.200Z,12.80
2023-02-02T12:55:08.585Z,12.63
2023-02-02T12:57:51.067Z,8.13
2023-02-02T13:00:51.726Z,11.20
2023-02-02T13:03:32.029Z,10.80
2023-02-02T13:06:29.942Z,11.18
2023-02-02T13:09:02.923Z,13.80
2023-02-02T13:11:40.085Z,16.73
2023-02-02T13:14:12.710Z,9.80
2023-02-02T13:16:44.367Z,20.70
2023-02-02T13:19:22.199Z,11.77
2023-02-02T13:21:52.400Z,13.80
2023-02-02T13:24:30.726Z,13.80
2023-02-02T13:27:02.086Z,15.57
2023-02-02T13:29:43.923Z,13.63
2023-02-02T13:32:22.472Z,16.17
2023-02-02T13:34:58.248Z,12.70
2023-02-02T13:37:37.107Z,14.88
2023-02-02T13:40:17.164Z,13.55
2023-02-02T13:42:50.122Z,9.25
2023-02-02T13:45:37.330Z,15.57
2023-02-02T13:48:16.034Z,10.27
2023-02-02T13:50:55.717Z,12.30
2023-02-02T13:53:40.812Z,14.00
2023-02-02T13:56:26.943Z,12.77
2023-02-02T13:59:14.310Z,12.90
2023-02-02T14:01:46.647Z,16.13
2023-02-02T14:04:23.221Z,15.80
2023-02-02T14:06:59.725Z,13.27
2023-02-02T14:09:30.973Z,17.70
2023-02-02T14:12:02.316Z,18.00
2023-02-02T14:14:35.039Z,18.17
2023-02-02T14:17:06.030Z,18.58
2023-02-02T14:19:55.272Z,13.80
2023-02-02T14:22:44.736Z,15.88
2023-02-02T14:25:55.335Z,19.80
2023-02-02T14:28:43.301Z,18.65
2023-02-02T14:31:27.452Z,21.23
2023-02-02T14:34:16.703Z,20.60
2023-02-02T14:36:59.665Z,14.82
2023-02-02T14:39:30.928Z,18.40
2023-02-02T14:42:43.069Z,19.35
2023-02-02T14:45:27.169Z,19.52
2023-02-02T14:47:58.469Z,21.75
2023-02-02T14:50:36.804Z,19.77
2023-02-02T14:53:09.229Z,14.20
2023-02-02T14:55:56.424Z,21.67
2023-02-02T14:58:30.295Z,22.92
2023-02-02T15:01:08.508Z,17.30
2023-02-02T15:03:53.029Z,20.35
2023-02-02T15:06:33.908Z,19.42
2023-02-02T15:09:27.849Z,22.45
2023-02-02T15:12:35.307Z,21.70
2023-02-02T15:15:18.424Z,19.67
2023-02-02T15:18:00.983Z,17.87
2023-02-02T15:20:34.021Z,15.27
2023-02-02T15:23:06.035Z,23.13
2023-02-02T15:25:42.120Z,26.55
2023-02-02T15:28:25.092Z,24.73
2023-02-02T15:31:00.893Z,22.02
2023-02-02T15:33:31.615Z,19.23
2023-02-02T15:36:03.862Z,24.10
2023-02-02T15:38:35.396Z,15.95
2023-02-02T15:41:13.595Z,19.83
2023-02-02T15:43:42.101Z,20.20
2023-02-02T15:46:14.865Z,20.92
2023-02-02T15:48:43.974Z,20.98
2023-02-02T15:51:20.400Z,23.07
2023-02-02T15:53:51.842Z,19.98
2023-02-02T15:56:27.613Z,17.35
2023-02-02T15:58:58.507Z,18.27
2023-02-02T16:01:30.957Z,20.45
2023-02-02T16:04:08.867Z,17.67
2023-02-02T16:06:37.479Z,16.45
2023-02-02T16:09:06.915Z,22.80
2023-02-02T16:11:35.229Z,21.67
2023-02-02T16:14:06.040Z,19.00
2023-02-02T16:16:37.626Z,19.92
2023-02-02T16:19:14.029Z,17.52
2023-02-02T16:21:57.266Z,16.90
2023-02-02T16:24:28.343Z,19.30
2023-02-02T16:27:00.000Z,16.93
2023-02-02T16:29:30.840Z,19.63
2023-02-02T16:32:00.723Z,18.02
2023-02-02T16:34:47.316Z,17.58
2023-02-02T16:37:22.510Z,15.75
2023-02-02T16:39:51.075Z,14.27
2023-02-02T16:42:27.663Z,18.08
2023-02-02T16:44:57.176Z,16.20
2023-02-02T16:47:38.929Z,17.38
2023-02-02T16:50:29.846Z,18.17
2023-02-02T16:53:02.919Z,14.65
2023-02-02T16:55:47.953Z,17.97
2023-02-02T16:58:21.066Z,19.63
2023-02-02T17:01:14.779Z,20.35
2023-02-02T17:03:52.649Z,17.75
2023-02-02T17:06:41.721Z,15.02
2023-02-02T17:09:34.755Z,17.65
2023-02-02T17:12:12.352Z,18.67
2023-02-02T17:14:53.255Z,18.13
2023-02-02T17:17:21.761Z,16.92
2023-02-02T17:19:51.509Z,16.08
2023-02-02T17:22:22.327Z,15.55
2023-02-02T17:24:52.159Z,14.50
2023-02-02T17:27:26.989Z,19.00
2023-02-02T17:29:56.050Z,22.73
2023-02-02T17:32:24.974Z,19.92
2023-02-02T17:34:54.862Z,16.52
2023-02-02T17:37:23.168Z,21.03
2023-02-02T17:39:51.444Z,21.80
2023-02-02T17:42:25.487Z,20.00
2023-02-02T17:44:54.424Z,17.63
2023-02-02T17:47:22.659Z,22.92
2023-02-02T17:49:52.052Z,20.73
2023-02-02T17:52:21.732Z,18.35
2023-02-02T17:54:50.050Z,20.35
2023-02-02T17:57:18.442Z,19.73
2023-02-02T17:59:46.625Z,22.73
2023-02-02T18:02:17.556Z,17.42
2023-02-02T18:04:45.905Z,22.03
2023-02-02T18:07:14.377Z,18.13
2023-02-02T18:09:44.030Z,23.08
2023-02-02T18:12:12.164Z,23.85
2023-02-02T18:14:40.736Z,20.45
2023-02-02T18:17:09.357Z,20.27
2023-02-02T18:19:39.231Z,19.60
2023-02-02T18:22:07.535Z,16.40
2023-02-02T18:24:35.699Z,24.30
2023-02-02T18:27:05.386Z,16.50
2023-02-02T18:29:33.727Z,16.38
2023-02-02T18:32:02.174Z,14.60
2023-02-02T18:34:31.819Z,16.70
2023-02-02T18:37:00.262Z,11.98
2023-02-02T18:39:28.535Z,17.20
2023-02-02T18:41:56.875Z,14.10
2023-02-02T18:44:26.827Z,11.80
2023-02-02T18:46:55.488Z,13.60
2023-02-02T18:49:24.018Z,14.40
2023-02-02T18:51:52.340Z,13.63
2023-02-02T18:54:20.664Z,12.90
2023-02-02T18:56:48.890Z,13.30
2023-02-02T18:59:17.419Z,10.80
2023-02-02T19:01:47.165Z,11.40
2023-02-02T19:04:15.564Z,13.40
2023-02-02T19:07:01.889Z,15.10
2023-02-02T19:09:30.325Z,14.50
2023-02-02T19:11:58.929Z,13.38
2023-02-02T19:14:33.225Z,9.80
2023-02-02T19:17:13.166Z,10.50
2023-02-02T19:19:42.983Z,13.15
2023-02-02T19:22:19.822Z,12.40
2023-02-02T19:24:48.754Z,13.82
2023-02-02T19:27:19.032Z,13.00
2023-02-02T19:29:48.988Z,12.20
2023-02-02T19:32:21.889Z,16.23
2023-02-02T19:34:50.726Z,16.98
2023-02-02T19:37:25.130Z,15.52
2023-02-02T19:39:55.725Z,12.63
2023-02-02T19:42:25.194Z,16.17
2023-02-02T19:44:54.552Z,18.77
2023-02-02T19:47:31.495Z,17.83
2023-02-02T19:50:00.841Z,14.82
2023-02-02T19:52:37.644Z,19.73
2023-02-02T19:55:19.819Z,21.70
2023-02-02T19:57:48.241Z,19.52
2023-02-02T20:00:21.132Z,20.60
2023-02-02T20:02:58.819Z,20.42
2023-02-02T20:05:28.684Z,20.80
2023-02-02T20:08:03.248Z,21.27
2023-02-02T20:10:39.366Z,21.77
2023-02-02T20:13:20.562Z,26.17
2023-02-02T20:15:49.755Z,20.20
2023-02-02T20:18:22.717Z,22.27
2023-02-02T20:20:53.753Z,24.60
2023-02-02T20:23:30.750Z,23.40
2023-02-02T20:25:59.789Z,21.70
2023-02-02T20:28:35.955Z,22.42
2023-02-02T20:31:06.325Z,23.35
2023-02-02T20:33:35.913Z,18.55
2023-02-02T20:36:27.729Z,22.23
2023-02-02T20:38:56.183Z,23.63
2023-02-02T20:41:24.535Z,21.13
2023-02-02T20:43:52.716Z,20.45
2023-02-02T20:46:20.985Z,23.10
2023-02-02T20:48:50.615Z,23.75
2023-02-02T20:51:18.768Z,22.55
2023-02-02T20:53:47.318Z,21.85
2023-02-02T20:56:15.563Z,21.65
2023-02-02T20:58:43.841Z,19.50
2023-02-02T21:01:12.146Z,20.10
2023-02-02T21:03:40.419Z,17.35
2023-02-02T21:06:10.158Z,21.73
2023-02-02T21:08:39.176Z,33.60
2023-02-02T21:11:07.544Z,40.80
2023-02-02T21:13:35.803Z,25.30
2023-02-02T21:16:04.021Z,24.05
2023-02-02T21:18:32.232Z,20.85
2023-02-02T21:21:00.470Z,18.95
2023-02-02T21:23:31.019Z,18.30
2023-02-02T21:25:59.248Z,20.23
2023-02-02T21:28:27.416Z,21.00
2023-02-02T21:30:55.842Z,26.33
2023-02-02T21:33:24.222Z,25.53
2023-02-02T21:35:52.487Z,26.27
2023-02-02T21:38:20.837Z,31.73
2023-02-02T21:40:51.663Z,28.02
2023-02-02T21:43:20.018Z,26.02
2023-02-02T21:45:51.491Z,22.35
2023-02-02T21:48:29.031Z,24.75
2023-02-02T21:50:57.992Z,22.30
2023-02-02T21:53:28.546Z,23.90
2023-02-02T21:55:59.910Z,21.17
2023-02-02T21:58:35.010Z,22.05
2023-02-02T22:01:18.918Z,26.73
2023-02-02T22:03:49.648Z,23.47
2023-02-02T22:06:29.086Z,22.30
2023-02-02T22:09:03.195Z,20.55
2023-02-02T22:11:44.813Z,20.80
2023-02-02T22:14:21.230Z,21.67
2023-02-02T22:16:55.378Z,23.48
2023-02-02T22:19:37.332Z,20.30
2023-02-02T22:22:20.562Z,20.05
2023-02-02T22:25:01.444Z,24.08
2023-02-02T22:27:43.129Z,18.63
2023-02-02T22:30:23.295Z,20.67
2023-02-02T22:32:53.522Z,24.73
2023-02-02T22:35:21.934Z,19.60
2023-02-02T22:37:51.387Z,17.60
2023-02-02T22:40:22.633Z,20.15
2023-02-02T22:42:53.037Z,22.75
2023-02-02T22:45:21.415Z,20.13
2023-02-02T22:47:51.284Z,17.52
2023-02-02T22:50:22.792Z,19.05
2023-02-02T22:52:51.336Z,21.23
2023-02-02T22:55:20.805Z,23.75
2023-02-02T22:57:49.430Z,24.08
2023-02-02T23:00:21.198Z,21.92
2023-02-02T23:02:49.774Z,23.10
2023-02-02T23:05:20.384Z,21.42
2023-02-02T23:07:49.559Z,19.15
2023-02-02T23:10:19.694Z,26.80
2023-02-02T23:12:48.942Z,23.58
2023-02-02T23:15:19.785Z,18.10
2023-02-02T23:17:48.114Z,20.63
2023-02-02T23:20:17.446Z,19.30
2023-02-02T23:22:45.666Z,22.40
2023-02-02T23:25:14.795Z,23.33
2023-02-02T23:27:43.508Z,21.73
2023-02-02T23:30:14.911Z,20.48
2023-02-02T23:32:44.699Z,19.60
2023-02-02T23:35:13.092Z,21.45
2023-02-02T23:37:41.279Z,20.92
2023-02-02T23:40:10.774Z,21.98
2023-02-02T23:42:38.965Z,25.63
2023-02-02T23:45:07.754Z,22.95
2023-02-02T23:47:36.412Z,20.88
2023-02-02T23:50:09.116Z,20.65
2023-02-02T23:52:38.364Z,21.92
2023-02-02T23:55:07.336Z,23.77
2023-02-02T23:57:36.661Z,22.40
